Time;durP1;ratioP1;P1;durP2;ratioP2;P2;SDS_P1;SDS_P2;PMS_P1;PMS_P2;Temp;Humidity;BMP_temperature;BMP_pressure;BME280_temperature;BME280_humidity;BME280_pressure;Samples;Min_cycle;Max_cycle;Signal;HPM_P1;HPM_P2
2022/07/20 00:02:02;;;;;;;4.90;3.17;;;23.70;36.70;;;;;;5032317;28;20445;-58
2022/07/20 00:04:29;;;;;;;6.53;3.47;;;23.70;36.80;;;;;;5032641;28;20507;-59
2022/07/20 00:06:57;;;;;;;5.63;3.43;;;23.70;36.80;;;;;;5032914;28;20450;-59
2022/07/20 00:12:10;;;;;;;4.00;3.57;;;23.70;37.10;;;;;;5026642;28;20428;-57
2022/07/20 00:14:38;;;;;;;4.90;3.47;;;23.60;37.20;;;;;;5032821;28;20484;-59
2022/07/20 00:17:05;;;;;;;3.93;2.97;;;23.60;37.20;;;;;;5033364;28;20539;-58
2022/07/20 00:19:32;;;;;;;5.47;3.13;;;23.60;37.40;;;;;;5032732;28;20547;-58
2022/07/20 00:22:00;;;;;;;6.50;3.70;;;23.50;37.40;;;;;;5032216;28;21013;-59
2022/07/20 00:24:29;;;;;;;5.10;3.43;;;23.50;37.60;;;;;;5032856;28;20963;-59
2022/07/20 00:26:56;;;;;;;10.77;3.63;;;23.40;37.60;;;;;;5035806;28;21011;-60
2022/07/20 00:29:23;;;;;;;5.97;3.63;;;23.40;37.80;;;;;;5036513;28;20479;-60
2022/07/20 00:31:50;;;;;;;3.83;3.00;;;23.30;37.90;;;;;;5035995;28;20961;-59
2022/07/20 00:34:18;;;;;;;6.27;3.90;;;23.30;38.10;;;;;;5036964;28;20536;-59
2022/07/20 00:36:45;;;;;;;8.70;3.47;;;23.20;38.10;;;;;;5036127;28;20452;-60
2022/07/20 00:39:12;;;;;;;5.73;3.73;;;23.20;38.10;;;;;;5033159;28;20487;-57
2022/07/20 00:41:41;;;;;;;4.53;3.13;;;23.20;38.20;;;;;;5036039;28;20509;-59
2022/07/20 00:44:11;;;;;;;7.23;4.00;;;23.20;38.30;;;;;;5036954;28;20804;-58
2022/07/20 00:46:40;;;;;;;6.03;3.53;;;23.10;38.30;;;;;;5035767;28;20542;-58
2022/07/20 00:49:09;;;;;;;7.73;4.30;;;23.10;38.40;;;;;;5036211;28;20584;-59
2022/07/20 00:51:39;;;;;;;4.23;3.77;;;23.10;38.40;;;;;;5036401;28;20526;-59
2022/07/20 00:54:06;;;;;;;6.83;4.50;;;23.00;38.50;;;;;;5036183;28;20486;-56
2022/07/20 00:56:34;;;;;;;5.03;3.47;;;23.00;38.60;;;;;;5036444;28;20851;-58
2022/07/20 00:59:04;;;;;;;6.80;4.30;;;23.00;38.70;;;;;;5036482;28;20448;-58
2022/07/20 01:01:32;;;;;;;7.13;4.13;;;22.90;38.70;;;;;;5036241;28;20467;-59
2022/07/20 01:04:00;;;;;;;6.37;3.60;;;22.90;38.90;;;;;;5016785;28;20954;-58
2022/07/20 01:06:28;;;;;;;5.60;3.40;;;22.90;39.00;;;;;;5031590;28;20479;-59
2022/07/20 01:08:56;;;;;;;6.80;3.53;;;22.80;38.90;;;;;;5036137;28;20452;-59
2022/07/20 01:11:23;;;;;;;5.60;3.40;;;22.80;39.00;;;;;;5035976;28;20499;-60
2022/07/20 01:13:50;;;;;;;8.67;4.03;;;22.70;39.60;;;;;;5036190;28;20448;-58
2022/07/20 01:16:19;;;;;;;6.27;4.07;;;22.70;39.10;;;;;;5035504;28;20511;-58
2022/07/20 01:18:47;;;;;;;11.10;6.70;;;22.70;39.10;;;;;;5035832;28;20452;-58
2022/07/20 01:21:15;;;;;;;5.57;4.00;;;22.70;39.30;;;;;;5035485;28;20525;-59
2022/07/20 01:23:43;;;;;;;6.37;4.00;;;22.60;39.30;;;;;;5036018;28;20506;-58
2022/07/20 01:26:10;;;;;;;4.60;3.47;;;22.60;39.40;;;;;;5035903;28;20447;-58
2022/07/20 01:28:37;;;;;;;7.70;3.47;;;22.60;39.50;;;;;;5036857;28;20509;-60
2022/07/20 01:31:05;;;;;;;4.27;3.17;;;22.60;39.60;;;;;;5036333;28;20535;-59
2022/07/20 01:33:32;;;;;;;6.13;3.30;;;22.50;39.60;;;;;;5036796;28;20555;-59
2022/07/20 01:36:00;;;;;;;5.77;3.60;;;22.50;39.70;;;;;;5036125;28;20526;-58
2022/07/20 01:38:28;;;;;;;5.00;3.80;;;22.40;39.70;;;;;;5035067;28;20456;-59
2022/07/20 01:40:56;;;;;;;5.27;3.60;;;22.40;39.80;;;;;;5035323;28;20472;-59
2022/07/20 01:43:23;;;;;;;5.27;3.70;;;22.40;39.90;;;;;;5035353;28;20522;-59
2022/07/20 01:45:50;;;;;;;7.70;3.33;;;22.40;40.00;;;;;;5035280;28;20475;-58
2022/07/20 01:48:17;;;;;;;6.73;3.50;;;22.30;40.00;;;;;;5035386;28;20456;-59
2022/07/20 01:50:45;;;;;;;4.30;3.53;;;22.30;40.00;;;;;;5035305;28;20527;-60
2022/07/20 01:53:12;;;;;;;6.70;3.87;;;22.30;40.10;;;;;;5035975;28;20455;-59
2022/07/20 01:55:41;;;;;;;5.60;3.30;;;22.30;40.10;;;;;;5034539;28;21028;-58
2022/07/20 01:58:08;;;;;;;8.10;3.43;;;22.30;40.20;;;;;;5034966;28;20509;-59
2022/07/20 02:00:36;;;;;;;7.03;3.23;;;22.20;40.10;;;;;;5040172;28;20483;-58
2022/07/20 02:03:03;;;;;;;4.30;3.37;;;22.20;40.20;;;;;;5039727;28;20479;-58
2022/07/20 02:05:31;;;;;;;10.53;3.60;;;22.10;40.30;;;;;;5034941;28;20555;-58
2022/07/20 02:07:58;;;;;;;7.27;3.80;;;22.10;40.40;;;;;;5034799;28;20557;-60
2022/07/20 02:10:26;;;;;;;11.10;4.33;;;22.10;40.50;;;;;;5034416;28;20468;-59
2022/07/20 02:12:55;;;;;;;5.90;3.33;;;22.00;40.60;;;;;;5034558;28;20447;-59
2022/07/20 02:18:07;;;;;;;7.60;3.80;;;22.00;40.70;;;;;;5035094;28;20458;-60
2022/07/20 02:20:35;;;;;;;6.30;3.60;;;21.90;40.80;;;;;;5034937;28;21057;-57
2022/07/20 02:23:03;;;;;;;5.03;3.37;;;21.90;40.90;;;;;;5034570;28;20451;-57
2022/07/20 02:25:31;;;;;;;6.37;3.60;;;21.90;41.00;;;;;;5035857;28;20497;-59
2022/07/20 02:27:59;;;;;;;5.23;3.17;;;21.90;41.20;;;;;;5035181;28;20513;-60
2022/07/20 02:30:26;;;;;;;5.50;2.83;;;21.80;41.20;;;;;;5047491;22;20489;-62
2022/07/20 02:32:54;;;;;;;8.40;3.30;;;21.80;41.30;;;;;;5014749;28;20472;-62
2022/07/20 02:35:21;;;;;;;7.47;3.50;;;21.80;41.30;;;;;;5014442;28;20522;-61
2022/07/20 02:37:48;;;;;;;7.00;3.53;;;21.70;41.40;;;;;;5014397;28;20478;-60
2022/07/20 02:40:16;;;;;;;5.80;3.77;;;21.70;41.50;;;;;;5014353;28;21006;-61
2022/07/20 02:42:43;;;;;;;5.93;3.40;;;21.70;41.60;;;;;;5013811;28;20498;-60
2022/07/20 02:45:12;;;;;;;5.30;3.23;;;21.60;41.70;;;;;;5013807;28;20542;-61
2022/07/20 02:47:46;;;;;;;7.20;3.00;;;21.60;41.80;;;;;;5013805;28;20446;-60
2022/07/20 02:50:14;;;;;;;5.83;2.83;;;21.50;41.80;;;;;;5013373;28;20484;-61
2022/07/20 02:52:42;;;;;;;3.50;3.17;;;21.50;42.10;;;;;;5013932;28;20814;-61
2022/07/20 02:55:10;;;;;;;4.60;3.30;;;21.40;42.20;;;;;;5013841;28;20516;-62
2022/07/20 02:57:37;;;;;;;5.40;3.13;;;21.40;42.30;;;;;;5014098;28;20549;-60
2022/07/20 03:00:06;;;;;;;6.83;3.10;;;21.40;42.40;;;;;;5013085;28;20501;-62
2022/07/20 03:02:35;;;;;;;4.47;3.17;;;21.40;42.50;;;;;;5013745;28;20460;-61
2022/07/20 03:05:02;;;;;;;5.90;3.60;;;21.40;42.60;;;;;;5013916;28;20502;-62
2022/07/20 03:07:30;;;;;;;4.17;3.10;;;21.30;42.60;;;;;;5012854;28;20861;-61
2022/07/20 03:09:57;;;;;;;6.10;3.47;;;21.30;42.70;;;;;;5013898;28;20483;-61
2022/07/20 03:12:24;;;;;;;4.37;3.40;;;21.30;42.70;;;;;;5013525;28;20482;-62
2022/07/20 03:14:51;;;;;;;5.23;3.63;;;21.30;42.80;;;;;;5013615;28;20483;-61
2022/07/20 03:17:19;;;;;;;3.83;3.40;;;21.30;42.80;;;;;;5012492;28;20526;-61
2022/07/20 03:19:47;;;;;;;5.17;2.90;;;21.30;42.90;;;;;;5014171;28;20490;-60
2022/07/20 03:22:15;;;;;;;4.97;3.83;;;21.30;43.10;;;;;;5013695;28;20503;-60
2022/07/20 03:24:42;;;;;;;4.20;3.70;;;21.20;43.20;;;;;;5013985;28;20517;-60
2022/07/20 03:27:10;;;;;;;8.33;3.90;;;21.20;43.20;;;;;;5013398;28;20911;-60
2022/07/20 03:29:37;;;;;;;7.60;3.37;;;21.10;43.90;;;;;;5013701;28;20481;-62
2022/07/20 03:32:05;;;;;;;4.90;3.57;;;21.10;43.40;;;;;;5013455;28;20506;-59
2022/07/20 03:34:33;;;;;;;4.17;3.10;;;21.10;43.40;;;;;;5013546;28;20485;-61
2022/07/20 03:37:01;;;;;;;8.97;3.70;;;21.10;43.40;;;;;;5012897;28;20985;-62
2022/07/20 03:39:29;;;;;;;7.40;3.77;;;21.10;43.50;;;;;;5013012;28;20508;-61
2022/07/20 03:41:56;;;;;;;7.57;3.27;;;21.10;43.60;;;;;;5013353;28;20500;-61
2022/07/20 03:44:23;;;;;;;6.20;3.10;;;21.00;43.60;;;;;;5013320;28;20458;-61
2022/07/20 03:46:50;;;;;;;9.63;3.77;;;21.00;43.60;;;;;;5013246;28;20443;-60
2022/07/20 03:49:18;;;;;;;5.50;3.83;;;21.10;43.80;;;;;;5012725;28;21028;-61
2022/07/20 03:51:45;;;;;;;6.40;3.80;;;21.10;43.80;;;;;;5013586;28;20475;-61
2022/07/20 03:54:14;;;;;;;3.40;2.87;;;21.10;43.80;;;;;;5013555;28;20813;-59
2022/07/20 03:56:41;;;;;;;9.47;4.20;;;21.10;43.90;;;;;;5013306;28;20910;-60
2022/07/20 03:59:09;;;;;;;5.93;3.60;;;21.10;43.90;;;;;;5013254;28;20523;-60
2022/07/20 04:01:36;;;;;;;9.80;3.60;;;21.10;43.90;;;;;;5012850;28;20547;-62
2022/07/20 04:04:05;;;;;;;6.70;3.43;;;21.10;44.00;;;;;;5012749;28;20448;-61
2022/07/20 04:10:00;;;;;;;6.63;4.00;;;21.30;43.70;;;;;;5130219;27;20608;-63
2022/07/20 04:12:28;;;;;;;7.40;4.27;;;21.50;43.90;;;;;;5125401;27;20446;-63
2022/07/20 04:14:55;;;;;;;6.43;3.60;;;21.80;43.70;;;;;;5113593;28;20518;-62
2022/07/20 04:17:22;;;;;;;5.50;4.27;;;22.10;43.20;;;;;;5123577;28;20863;-60
2022/07/20 04:19:50;;;;;;;4.67;3.87;;;22.50;42.70;;;;;;5116086;28;20491;-61
2022/07/20 04:22:18;;;;;;;7.10;3.50;;;22.90;42.30;;;;;;5129833;27;20464;-59
2022/07/20 04:24:45;;;;;;;3.63;3.23;;;23.20;41.80;;;;;;5112056;27;20468;-59
2022/07/20 04:27:14;;;;;;;5.83;3.27;;;23.50;41.50;;;;;;5127478;28;20937;-59
2022/07/20 04:29:41;;;;;;;7.57;3.70;;;23.90;41.20;;;;;;5129421;27;20505;-61
2022/07/20 04:32:08;;;;;;;6.43;3.70;;;24.30;41.00;;;;;;5111637;28;20456;-61
2022/07/20 04:34:36;;;;;;;9.63;3.80;;;24.60;40.80;;;;;;5129637;27;20445;-61
2022/07/20 04:37:03;;;;;;;9.97;3.37;;;24.90;40.50;;;;;;5111693;28;20442;-60
2022/07/20 04:39:30;;;;;;;5.77;3.80;;;25.10;40.10;;;;;;5130471;28;20443;-60
2022/07/20 04:41:57;;;;;;;5.00;3.80;;;25.40;39.70;;;;;;5116352;27;20498;-60
2022/07/20 04:44:26;;;;;;;6.43;3.60;;;25.60;39.20;;;;;;5126862;28;20509;-59
2022/07/20 04:46:53;;;;;;;5.53;3.40;;;25.90;39.40;;;;;;5126549;28;20441;-60
2022/07/20 04:49:21;;;;;;;5.40;3.43;;;26.10;38.20;;;;;;5126357;28;20474;-60
2022/07/20 04:51:48;;;;;;;4.53;3.77;;;26.30;37.80;;;;;;5126097;28;20471;-60
2022/07/20 04:54:18;;;;;;;5.47;3.53;;;26.50;37.50;;;;;;5115266;28;20538;-61
2022/07/20 04:56:45;;;;;;;3.90;3.50;;;26.70;37.20;;;;;;5114346;27;20452;-60
2022/07/20 04:59:13;;;;;;;7.87;3.83;;;26.80;36.80;;;;;;5128392;28;20501;-60
2022/07/20 05:01:41;;;;;;;5.00;3.70;;;27.00;36.50;;;;;;5122921;27;20468;-60
2022/07/20 05:04:09;;;;;;;5.80;2.90;;;27.10;36.20;;;;;;5119118;27;20450;-61
2022/07/20 05:06:36;;;;;;;10.03;4.10;;;27.30;36.00;;;;;;5121882;27;20447;-61
2022/07/20 05:09:07;;;;;;;8.17;4.30;;;27.50;35.60;;;;;;5114322;27;20505;-61
2022/07/20 05:11:34;;;;;;;10.63;3.87;;;27.60;35.40;;;;;;5109364;28;20979;-63
2022/07/20 05:14:01;;;;;;;14.73;3.93;;;27.80;35.10;;;;;;5110663;28;20718;-61
2022/07/20 05:16:28;;;;;;;4.50;3.70;;;28.00;34.70;;;;;;5120434;28;20469;-64
2022/07/20 05:18:57;;;;;;;3.93;3.10;;;28.10;34.50;;;;;;5112720;28;20456;-61
2022/07/20 05:21:25;;;;;;;7.60;4.03;;;28.10;34.30;;;;;;5095462;28;20469;-61
2022/07/20 05:23:52;;;;;;;6.07;3.60;;;28.30;34.80;;;;;;5106121;28;20936;-61
2022/07/20 05:26:20;;;;;;;5.60;4.07;;;28.50;34.00;;;;;;5116367;28;20441;-61
2022/07/20 05:28:47;;;;;;;7.30;3.90;;;28.70;33.70;;;;;;5116182;28;20473;-61
2022/07/20 05:31:15;;;;;;;4.90;4.27;;;28.80;33.60;;;;;;5115822;28;20465;-62
2022/07/20 05:33:42;;;;;;;6.40;3.90;;;28.90;33.30;;;;;;5115878;28;20502;-61
2022/07/20 05:36:14;;;;;;;5.60;4.40;;;29.10;33.20;;;;;;5104778;28;20513;-60
2022/07/20 05:38:41;;;;;;;5.93;4.03;;;29.20;32.90;;;;;;5096056;28;20422;-59
2022/07/20 05:41:09;;;;;;;6.50;3.63;;;29.40;32.70;;;;;;5095632;28;20466;-60
2022/07/20 05:43:36;;;;;;;3.90;3.27;;;29.50;32.50;;;;;;5095626;28;20934;-61
2022/07/20 05:46:04;;;;;;;6.33;3.60;;;29.50;32.40;;;;;;5095982;28;20441;-60
2022/07/20 05:48:32;;;;;;;5.67;3.30;;;29.60;32.30;;;;;;5095797;28;20473;-60
2022/07/20 05:51:00;;;;;;;4.73;3.87;;;29.60;32.30;;;;;;5095363;28;20466;-61
2022/07/20 05:53:28;;;;;;;5.93;3.70;;;29.70;32.20;;;;;;5095641;28;20924;-60
2022/07/20 05:55:56;;;;;;;6.60;3.80;;;29.70;32.10;;;;;;5095754;28;20464;-60
2022/07/20 05:58:23;;;;;;;3.70;3.40;;;29.70;32.10;;;;;;5095562;28;20495;-61
2022/07/20 06:00:51;;;;;;;7.27;3.80;;;29.80;32.00;;;;;;5095894;28;20470;-59
2022/07/20 06:03:18;;;;;;;6.47;3.63;;;29.90;31.90;;;;;;5095816;28;20449;-61
2022/07/20 06:05:45;;;;;;;8.00;3.40;;;29.90;31.70;;;;;;5101820;28;20441;-65
2022/07/20 06:08:13;;;;;;;5.50;3.43;;;29.90;31.70;;;;;;5096325;28;20954;-64
2022/07/20 06:10:41;;;;;;;5.43;3.57;;;29.90;31.80;;;;;;5095869;28;20825;-63
2022/07/20 06:13:09;;;;;;;5.07;3.93;;;29.90;31.80;;;;;;5108850;28;20471;-64
2022/07/20 06:15:36;;;;;;;6.10;3.70;;;29.90;32.00;;;;;;5103581;28;20877;-64
2022/07/20 06:18:03;;;;;;;4.63;4.00;;;29.90;32.20;;;;;;5109168;27;20471;-64
2022/07/20 06:20:31;;;;;;;6.40;3.77;;;29.80;32.20;;;;;;5111808;28;21068;-63
2022/07/20 06:22:58;;;;;;;5.47;3.90;;;29.80;32.40;;;;;;5115718;28;20447;-64
2022/07/20 06:25:26;;;;;;;5.40;3.67;;;29.80;32.60;;;;;;5115060;28;20479;-61
2022/07/20 06:27:57;;;;;;;5.57;4.20;;;29.70;32.90;;;;;;5115103;28;20498;-62
2022/07/20 06:30:24;;;;;;;10.87;3.90;;;29.60;33.70;;;;;;5110157;28;20546;-61
2022/07/20 06:32:51;;;;;;;9.40;4.10;;;29.60;33.30;;;;;;5101732;28;20898;-61
2022/07/20 06:35:19;;;;;;;4.90;3.60;;;29.50;33.50;;;;;;5107982;28;20631;-61
2022/07/20 06:37:46;;;;;;;8.70;4.37;;;29.50;33.70;;;;;;5115422;28;20444;-61
2022/07/20 06:40:14;;;;;;;4.70;3.73;;;29.40;33.80;;;;;;5116217;28;20471;-61
2022/07/20 06:42:41;;;;;;;4.37;3.33;;;29.50;34.00;;;;;;5120615;28;20459;-62
2022/07/20 06:45:10;;;;;;;5.40;3.90;;;29.40;34.10;;;;;;5116266;28;20757;-62
2022/07/20 06:47:38;;;;;;;14.43;4.40;;;29.50;34.20;;;;;;5115948;28;20448;-61
2022/07/20 06:50:06;;;;;;;6.73;3.80;;;29.50;34.30;;;;;;5115491;28;20501;-61
2022/07/20 06:52:34;;;;;;;5.83;3.60;;;29.50;34.30;;;;;;5115056;27;21022;-61
2022/07/20 06:55:02;;;;;;;5.63;3.80;;;29.60;34.40;;;;;;5115803;28;20452;-61
2022/07/20 06:57:29;;;;;;;7.20;3.47;;;29.60;34.40;;;;;;5115319;28;20445;-61
2022/07/20 06:59:56;;;;;;;4.20;3.70;;;29.80;34.30;;;;;;5114964;28;20445;-61
2022/07/20 07:02:25;;;;;;;4.87;3.50;;;29.90;34.00;;;;;;5115340;28;20807;-61
2022/07/20 07:04:52;;;;;;;4.40;4.00;;;30.00;33.60;;;;;;5115533;28;20578;-62
2022/07/20 07:07:19;;;;;;;5.50;3.37;;;30.10;33.20;;;;;;5115007;28;20476;-60
2022/07/20 07:09:46;;;;;;;7.97;3.67;;;30.20;32.80;;;;;;5114650;28;20581;-60
2022/07/20 07:12:14;;;;;;;6.70;4.00;;;30.30;32.50;;;;;;5114956;28;20547;-61
2022/07/20 07:14:41;;;;;;;4.20;3.80;;;30.50;32.20;;;;;;5115796;28;20809;-60
2022/07/20 07:17:08;;;;;;;4.43;3.10;;;30.60;31.90;;;;;;5114805;28;20444;-60
2022/07/20 07:19:37;;;;;;;5.57;4.10;;;30.70;31.70;;;;;;5115017;28;20918;-61
2022/07/20 07:22:04;;;;;;;5.40;3.50;;;30.80;31.30;;;;;;5114584;28;20517;-60
2022/07/20 07:24:31;;;;;;;7.63;4.13;;;30.90;31.20;;;;;;5115762;28;20495;-60
2022/07/20 07:26:59;;;;;;;4.20;3.80;;;31.00;31.10;;;;;;5115949;28;20478;-61
2022/07/20 07:29:27;;;;;;;6.37;3.70;;;31.10;31.10;;;;;;5115985;28;20478;-61
2022/07/20 07:31:58;;;;;;;4.73;3.57;;;31.20;31.00;;;;;;5116756;27;20472;-60
2022/07/20 07:34:26;;;;;;;7.77;3.70;;;31.30;30.70;;;;;;5116872;28;20941;-63
2022/07/20 07:36:55;;;;;;;5.60;3.67;;;31.40;30.60;;;;;;5116029;28;20448;-62
2022/07/20 07:39:22;;;;;;;5.70;3.47;;;31.50;30.60;;;;;;5116023;28;20953;-62
2022/07/20 07:41:50;;;;;;;3.80;3.37;;;31.60;30.40;;;;;;5116375;28;20472;-62
2022/07/20 07:44:17;;;;;;;4.87;3.50;;;31.70;30.30;;;;;;5115785;28;20433;-62
2022/07/20 07:46:44;;;;;;;7.30;3.80;;;31.80;30.20;;;;;;5115828;28;20482;-60
2022/07/20 07:49:12;;;;;;;4.20;3.50;;;31.90;30.10;;;;;;5115181;28;20543;-60
2022/07/20 07:51:39;;;;;;;5.43;3.97;;;31.90;30.00;;;;;;5115573;28;20461;-62
2022/07/20 07:54:08;;;;;;;5.40;3.47;;;32.00;30.00;;;;;;5116091;28;20451;-63
2022/07/20 07:56:35;;;;;;;6.80;4.33;;;32.10;30.00;;;;;;5116165;28;21012;-61
2022/07/20 07:59:03;;;;;;;4.20;3.17;;;32.10;30.00;;;;;;5116577;28;20532;-61
2022/07/20 08:01:31;;;;;;;5.70;3.73;;;32.30;30.00;;;;;;5115373;28;20562;-61
2022/07/20 08:03:58;;;;;;;3.90;3.30;;;32.40;29.80;;;;;;5116533;28;20450;-62
2022/07/20 08:06:26;;;;;;;5.90;3.63;;;32.50;29.60;;;;;;5115758;28;20480;-61
2022/07/20 08:08:53;;;;;;;5.97;3.40;;;32.70;29.40;;;;;;5116002;28;20535;-61
2022/07/20 08:11:22;;;;;;;6.60;3.97;;;32.80;29.30;;;;;;5116653;28;20495;-62
2022/07/20 08:13:49;;;;;;;7.87;3.73;;;33.00;29.20;;;;;;5117088;28;20864;-61
2022/07/20 08:16:16;;;;;;;4.60;3.70;;;33.10;29.10;;;;;;5117335;28;20498;-62
2022/07/20 08:18:44;;;;;;;6.83;3.40;;;33.20;29.00;;;;;;5117337;28;20975;-62
2022/07/20 08:21:11;;;;;;;4.90;3.87;;;33.30;29.00;;;;;;5099668;28;21001;-62
2022/07/20 08:23:38;;;;;;;5.27;3.90;;;33.40;29.00;;;;;;5107744;28;20438;-62
2022/07/20 08:26:06;;;;;;;6.87;3.47;;;33.50;29.00;;;;;;5117052;28;20441;-62
2022/07/20 08:28:34;;;;;;;3.83;3.50;;;33.60;29.00;;;;;;5115013;28;20445;-60
2022/07/20 08:31:01;;;;;;;3.70;3.33;;;33.70;29.00;;;;;;5104549;28;20503;-60
2022/07/20 08:33:30;;;;;;;11.90;4.00;;;33.90;29.00;;;;;;5106366;22;20498;-61
2022/07/20 08:35:58;;;;;;;5.77;3.67;;;33.90;28.90;;;;;;5072828;28;20896;-61
2022/07/20 08:38:25;;;;;;;6.70;3.93;;;34.00;28.90;;;;;;5073118;28;20447;-62
2022/07/20 08:40:53;;;;;;;4.17;3.77;;;34.20;28.90;;;;;;5072665;28;20438;-61
2022/07/20 08:43:20;;;;;;;4.47;3.40;;;34.30;28.80;;;;;;5072877;28;20567;-61
2022/07/20 08:45:49;;;;;;;6.63;3.17;;;34.40;28.70;;;;;;5072551;28;20439;-61
2022/07/20 08:48:18;;;;;;;5.77;3.93;;;34.50;28.70;;;;;;5072307;28;20451;-62
2022/07/20 08:50:47;;;;;;;4.83;3.33;;;34.60;28.60;;;;;;5072583;28;20532;-62
2022/07/20 08:53:14;;;;;;;6.83;3.33;;;34.70;28.50;;;;;;5072966;28;20521;-62
2022/07/20 08:55:41;;;;;;;6.53;4.33;;;34.70;28.40;;;;;;5074552;28;20774;-59
2022/07/20 08:58:10;;;;;;;3.73;3.23;;;34.80;28.40;;;;;;5076693;28;20943;-62
2022/07/20 09:00:38;;;;;;;4.83;3.40;;;34.90;28.40;;;;;;5075913;28;20512;-62
2022/07/20 09:03:09;;;;;;;5.17;3.87;;;35.00;28.30;;;;;;5076118;28;20549;-62
2022/07/20 09:05:38;;;;;;;6.23;3.73;;;35.10;28.10;;;;;;5076042;28;20957;-62
2022/07/20 09:08:07;;;;;;;6.47;3.50;;;35.20;28.00;;;;;;5076220;28;20508;-62
2022/07/20 09:10:36;;;;;;;3.43;3.13;;;35.30;27.80;;;;;;5075871;28;20483;-63
2022/07/20 09:13:05;;;;;;;3.60;3.10;;;35.40;27.60;;;;;;5079131;28;20451;-62
2022/07/20 09:15:36;;;;;;;3.73;3.30;;;35.60;27.40;;;;;;5080064;28;20962;-61
2022/07/20 09:18:12;;;;;;;3.33;3.03;;;35.70;27.20;;;;;;5079588;28;20489;-62
2022/07/20 09:20:41;;;;;;;6.63;4.17;;;35.80;27.00;;;;;;5078226;28;20478;-62
2022/07/20 09:23:09;;;;;;;4.40;3.40;;;35.80;26.90;;;;;;5077985;28;20450;-62
2022/07/20 09:25:37;;;;;;;5.30;3.97;;;35.90;26.80;;;;;;5078670;28;20447;-62
2022/07/20 09:28:05;;;;;;;5.30;3.20;;;35.90;26.70;;;;;;5078300;28;20850;-62
2022/07/20 09:30:32;;;;;;;7.67;4.13;;;36.00;26.70;;;;;;5078231;28;20496;-61
2022/07/20 09:33:01;;;;;;;5.33;4.00;;;36.10;26.80;;;;;;5077016;28;20496;-62
2022/07/20 09:35:36;;;;;;;3.60;3.30;;;36.10;26.70;;;;;;5078781;28;20435;-63
2022/07/20 09:38:06;;;;;;;4.87;3.70;;;36.20;26.50;;;;;;5076944;28;20484;-62
2022/07/20 09:40:41;;;;;;;8.13;3.97;;;36.40;26.40;;;;;;5077034;28;20477;-62
2022/07/20 09:43:09;;;;;;;7.50;4.00;;;36.50;26.20;;;;;;5077965;28;20419;-62
2022/07/20 09:45:37;;;;;;;3.83;3.43;;;36.60;26.20;;;;;;5078108;28;20447;-61
2022/07/20 09:48:09;;;;;;;3.87;3.47;;;36.60;26.10;;;;;;5077739;28;20439;-62
2022/07/20 09:50:39;;;;;;;4.87;3.13;;;36.70;26.10;;;;;;5076750;28;20470;-62
2022/07/20 09:53:08;;;;;;;4.33;3.60;;;36.70;26.00;;;;;;5076765;28;20927;-62
2022/07/20 09:55:37;;;;;;;4.63;3.10;;;36.80;26.00;;;;;;5075730;28;20473;-63
2022/07/20 09:58:05;;;;;;;4.67;3.40;;;36.80;25.90;;;;;;5075699;28;21024;-62
2022/07/20 10:00:33;;;;;;;7.10;3.80;;;36.90;25.90;;;;;;5075486;28;20447;-62
2022/07/20 10:03:02;;;;;;;4.30;3.10;;;37.00;25.80;;;;;;5074899;28;20483;-61
2022/07/20 10:05:32;;;;;;;5.27;3.20;;;37.10;25.70;;;;;;5075225;28;20939;-62
2022/07/20 10:08:05;;;;;;;4.53;3.50;;;37.20;25.60;;;;;;5075396;28;20449;-62
2022/07/20 10:10:33;;;;;;;4.20;3.60;;;37.30;25.50;;;;;;5075728;28;20881;-62
2022/07/20 10:13:01;;;;;;;5.53;4.10;;;37.30;25.40;;;;;;5075327;28;20477;-62
2022/07/20 10:15:36;;;;;;;4.43;3.70;;;37.40;25.30;;;;;;5076638;28;20474;-62
2022/07/20 10:18:09;;;;;;;6.20;3.83;;;37.40;25.30;;;;;;5079113;28;20419;-62
2022/07/20 10:20:38;;;;;;;4.73;3.97;;;37.50;25.20;;;;;;5077301;28;20923;-62
2022/07/20 10:23:28;;;;;;;4.13;3.73;;;37.60;25.10;;;;;;5077555;28;20980;-63
2022/07/20 10:25:57;;;;;;;3.60;3.30;;;37.50;24.90;;;;;;5079927;28;20564;-62
2022/07/20 10:28:34;;;;;;;8.40;3.70;;;37.40;25.00;;;;;;5078618;28;20449;-62
2022/07/20 10:31:04;;;;;;;4.63;4.20;;;37.30;25.10;;;;;;5076571;28;20462;-62
2022/07/20 10:33:34;;;;;;;4.63;4.23;;;37.40;25.00;;;;;;5080740;28;20471;-62
2022/07/20 10:39:41;;;;;;;4.70;3.13;;;37.60;24.60;;;;;;5082694;28;20415;-60
2022/07/20 10:42:22;;;;;;;4.30;3.40;;;37.70;24.50;;;;;;5081655;28;20458;-62
2022/07/20 10:44:50;;;;;;;8.73;3.57;;;37.70;24.10;;;;;;5079304;28;20471;-63
2022/07/20 10:47:42;;;;;;;4.03;3.40;;;37.80;23.90;;;;;;5077925;28;20439;-62
2022/07/20 10:50:11;;;;;;;3.73;3.30;;;37.80;23.80;;;;;;5076920;28;20479;-61
2022/07/20 10:52:38;;;;;;;3.90;3.50;;;37.90;23.80;;;;;;5075099;28;20870;-61
2022/07/20 10:55:07;;;;;;;3.60;3.30;;;38.00;23.80;;;;;;5074747;28;20536;-62
2022/07/20 10:57:36;;;;;;;6.93;4.80;;;38.10;23.40;;;;;;5074064;28;20508;-62
2022/07/20 11:00:10;;;;;;;4.23;3.47;;;38.20;23.10;;;;;;5074193;28;20505;-61
2022/07/20 11:02:39;;;;;;;6.77;3.77;;;38.20;22.70;;;;;;5074098;28;20430;-62
2022/07/20 11:05:19;;;;;;;5.10;4.07;;;38.30;22.50;;;;;;5074006;28;20988;-62
2022/07/20 11:07:46;;;;;;;5.97;3.43;;;38.30;22.50;;;;;;5073375;28;20431;-62
2022/07/20 11:10:25;;;;;;;5.83;4.00;;;38.40;22.40;;;;;;5073505;28;20575;-62
2022/07/20 11:12:59;;;;;;;4.23;3.47;;;38.40;22.30;;;;;;5073914;28;20454;-61
2022/07/20 11:15:38;;;;;;;5.30;3.30;;;38.40;22.30;;;;;;5073571;28;20436;-61
2022/07/20 11:18:07;;;;;;;5.73;3.57;;;38.40;22.30;;;;;;5072554;28;20526;-61
2022/07/20 11:20:34;;;;;;;5.60;3.60;;;38.40;22.30;;;;;;5073002;28;20499;-61
2022/07/20 11:23:03;;;;;;;5.10;3.07;;;38.40;22.20;;;;;;5073116;28;20474;-61
2022/07/20 11:28:28;;;;;;;4.50;4.10;;;38.40;22.10;;;;;;5131853;27;20567;-61
2022/07/20 11:30:57;;;;;;;4.60;3.30;;;38.50;22.10;;;;;;5143248;27;20445;-61
2022/07/20 11:33:29;;;;;;;4.47;3.47;;;38.50;22.10;;;;;;5132022;27;20468;-62
2022/07/20 11:35:59;;;;;;;4.57;3.60;;;38.70;22.00;;;;;;5131020;27;20520;-60
2022/07/20 11:38:35;;;;;;;4.17;3.10;;;38.80;21.80;;;;;;5131044;27;20432;-62
2022/07/20 11:41:05;;;;;;;7.73;4.10;;;38.90;21.80;;;;;;5130909;27;20432;-61
2022/07/20 11:43:33;;;;;;;5.73;3.87;;;38.90;21.80;;;;;;5115192;28;20469;-63
2022/07/20 11:46:13;;;;;;;6.57;3.93;;;39.10;21.80;;;;;;5115293;27;20933;-60
2022/07/20 11:48:40;;;;;;;3.60;3.20;;;39.20;21.60;;;;;;5110163;28;20909;-61
2022/07/20 11:51:08;;;;;;;4.97;3.77;;;39.30;21.30;;;;;;5110755;28;20933;-61
2022/07/20 11:53:38;;;;;;;5.13;4.57;;;39.40;21.10;;;;;;5111087;28;20518;-62
2022/07/20 11:56:10;;;;;;;4.53;3.50;;;39.50;21.10;;;;;;5110840;28;20445;-62
2022/07/20 11:58:40;;;;;;;6.10;3.80;;;39.60;20.70;;;;;;5118651;28;20502;-62
2022/07/20 12:01:10;;;;;;;3.80;3.47;;;39.90;20.70;;;;;;5130618;27;20425;-63
2022/07/20 12:03:41;;;;;;;4.97;3.27;;;40.30;20.60;;;;;;5129017;27;20476;-63
2022/07/20 12:06:10;;;;;;;5.80;3.17;;;40.90;20.20;;;;;;5130204;27;20474;-63
2022/07/20 12:08:38;;;;;;;4.43;3.70;;;41.60;19.70;;;;;;5129006;27;20596;-61
2022/07/20 12:11:06;;;;;;;4.40;3.33;;;42.10;19.30;;;;;;5130269;27;20624;-62
2022/07/20 12:13:46;;;;;;;4.70;3.73;;;42.50;18.90;;;;;;5130528;27;20460;-64
2022/07/20 12:16:13;;;;;;;4.13;3.10;;;42.70;18.60;;;;;;5114099;27;20445;-63
2022/07/20 12:18:44;;;;;;;7.10;4.00;;;43.00;18.30;;;;;;5110017;28;20477;-63
2022/07/20 12:21:14;;;;;;;3.43;3.00;;;43.10;18.20;;;;;;5124751;28;20888;-63
2022/07/20 12:23:43;;;;;;;4.83;3.23;;;43.10;18.00;;;;;;5130600;27;20474;-63
2022/07/20 12:26:29;;;;;;;4.40;3.40;;;43.20;17.80;;;;;;5130263;27;20451;-63
2022/07/20 12:29:16;;;;;;;5.07;3.70;;;43.30;17.70;;;;;;5130346;27;20796;-63
2022/07/20 12:31:44;;;;;;;6.00;2.80;;;43.40;17.70;;;;;;5130172;27;20845;-62
2022/07/20 12:34:14;;;;;;;4.00;3.53;;;43.50;17.60;;;;;;5130150;27;20477;-62
2022/07/20 12:36:44;;;;;;;3.97;3.47;;;43.60;17.50;;;;;;5130296;27;20436;-63
2022/07/20 12:39:13;;;;;;;3.17;2.93;;;43.60;17.60;;;;;;5120003;27;20433;-62
2022/07/20 12:41:42;;;;;;;5.10;3.20;;;43.50;17.70;;;;;;5116454;28;20881;-63
2022/07/20 12:44:31;;;;;;;4.03;3.63;;;43.20;17.80;;;;;;5117047;28;20465;-63
2022/07/20 12:46:59;;;;;;;6.53;3.93;;;42.50;18.10;;;;;;5112299;28;20516;-62
2022/07/20 12:49:27;;;;;;;3.80;3.50;;;41.70;18.50;;;;;;5116819;28;20537;-63
2022/07/20 12:51:56;;;;;;;3.97;3.50;;;41.00;19.10;;;;;;5116771;28;20498;-63
2022/07/20 12:54:24;;;;;;;12.97;7.67;;;40.60;19.40;;;;;;5117124;28;20522;-63
2022/07/20 12:56:51;;;;;;;3.60;3.30;;;40.50;19.60;;;;;;5116845;28;20482;-64
2022/07/20 12:59:19;;;;;;;3.40;3.10;;;40.40;19.80;;;;;;5117419;28;20445;-63
2022/07/20 13:01:49;;;;;;;3.70;3.40;;;40.20;19.80;;;;;;5116986;28;20502;-62
2022/07/20 13:04:18;;;;;;;5.03;4.10;;;40.00;19.80;;;;;;5116515;28;21044;-61
2022/07/20 13:06:47;;;;;;;4.53;3.83;;;39.80;19.90;;;;;;5116294;28;20509;-62
2022/07/20 13:09:16;;;;;;;4.80;3.90;;;39.60;20.00;;;;;;5115671;27;20937;-62